createdAt,value
2022-12-17T00:02:16.701Z,-5.90
2022-12-17T00:05:02.265Z,-6.00
2022-12-17T00:07:47.624Z,-6.10
2022-12-17T00:10:33.417Z,-6.00
2022-12-17T00:13:18.834Z,-6.00
2022-12-17T00:16:10.418Z,-6.00
2022-12-17T00:18:57.325Z,-6.10
2022-12-17T00:21:42.751Z,-6.20
2022-12-17T00:24:28.189Z,-5.90
2022-12-17T00:27:13.624Z,-6.20
2022-12-17T00:29:58.945Z,-6.30
2022-12-17T00:32:45.491Z,-6.30
2022-12-17T00:35:33.436Z,-6.70
2022-12-17T00:38:19.025Z,-6.30
2022-12-17T00:41:09.650Z,-6.50
2022-12-17T00:43:56.363Z,-6.50
2022-12-17T00:46:42.150Z,-6.30
2022-12-17T00:49:27.598Z,-6.50
2022-12-17T00:52:14.327Z,-6.90
2022-12-17T00:54:59.974Z,-6.60
2022-12-17T00:57:45.573Z,-6.80
2022-12-17T01:00:31.865Z,-6.80
2022-12-17T01:03:25.395Z,-6.60
2022-12-17T01:06:12.190Z,-6.60
2022-12-17T01:08:59.786Z,-6.80
2022-12-17T01:11:45.321Z,-6.70
2022-12-17T01:14:31.316Z,-6.60
2022-12-17T01:17:16.887Z,-6.50
2022-12-17T01:20:02.186Z,-6.60
2022-12-17T01:22:48.282Z,-6.00
2022-12-17T01:25:35.647Z,-6.60
2022-12-17T01:28:21.439Z,-6.70
2022-12-17T01:31:07.336Z,-6.70
2022-12-17T01:33:53.043Z,-7.10
2022-12-17T01:36:38.524Z,-6.80
2022-12-17T01:39:24.357Z,-6.60
2022-12-17T01:42:11.350Z,-6.90
2022-12-17T01:45:08.787Z,-6.60
2022-12-17T01:47:58.697Z,-7.00
2022-12-17T01:50:47.311Z,-6.90
2022-12-17T01:53:35.789Z,-6.90
2022-12-17T01:56:21.770Z,-7.40
2022-12-17T01:59:09.361Z,-6.90
2022-12-17T02:01:55.138Z,-6.50
2022-12-17T02:04:41.017Z,-6.80
2022-12-17T02:07:43.954Z,-7.10
2022-12-17T02:10:42.520Z,-6.90
2022-12-17T02:13:34.788Z,-6.80
2022-12-17T02:16:27.674Z,-7.00
2022-12-17T02:19:20.926Z,-7.00
2022-12-17T02:22:09.633Z,-7.10
2022-12-17T02:25:03.116Z,-7.10
2022-12-17T02:27:51.270Z,-7.10
2022-12-17T02:30:36.939Z,-7.40
2022-12-17T02:33:23.615Z,-7.30
2022-12-17T02:36:16.415Z,-7.30
2022-12-17T02:39:02.406Z,-6.80
2022-12-17T02:42:00.014Z,-7.30
2022-12-17T02:44:48.281Z,-7.20
2022-12-17T02:47:35.470Z,-7.20
2022-12-17T02:50:20.970Z,-7.60
2022-12-17T02:53:07.911Z,-7.40
2022-12-17T02:55:55.801Z,-7.90
2022-12-17T02:58:41.429Z,-7.50
2022-12-17T03:01:28.494Z,-7.60
2022-12-17T03:04:14.552Z,-7.50
2022-12-17T03:07:01.467Z,-7.30
2022-12-17T03:09:47.198Z,-7.90
2022-12-17T03:12:32.454Z,-7.50
2022-12-17T03:15:17.835Z,-7.80
2022-12-17T03:18:04.887Z,-7.80
2022-12-17T03:20:50.226Z,-7.40
2022-12-17T03:23:37.011Z,-7.40
2022-12-17T03:26:22.875Z,-7.50
2022-12-17T03:29:08.287Z,-7.90
2022-12-17T03:31:53.981Z,-7.60
2022-12-17T03:34:40.852Z,-6.90
2022-12-17T03:37:26.276Z,-7.50
2022-12-17T03:40:12.505Z,-7.90
2022-12-17T03:42:58.124Z,-8.10
2022-12-17T03:45:43.591Z,-7.70
2022-12-17T03:48:32.777Z,-9.70
2022-12-17T03:51:20.474Z,-7.70
2022-12-17T03:54:07.101Z,-7.90
2022-12-17T03:56:53.332Z,-7.80
2022-12-17T03:59:38.816Z,-7.90
2022-12-17T04:02:24.922Z,-7.80
2022-12-17T04:05:15.055Z,-7.60
2022-12-17T04:08:05.125Z,-7.80
2022-12-17T04:10:50.471Z,-7.70
2022-12-17T04:13:41.036Z,-7.60
2022-12-17T04:16:27.299Z,-7.10
2022-12-17T04:19:12.790Z,-6.60
2022-12-17T04:21:58.178Z,-7.60
2022-12-17T04:24:45.482Z,-7.50
2022-12-17T04:27:30.915Z,-7.30
2022-12-17T04:30:17.633Z,-7.20
2022-12-17T04:33:02.167Z,-7.80
2022-12-17T04:35:47.581Z,-4.70
2022-12-17T04:38:33.295Z,-7.80
2022-12-17T04:41:20.188Z,-7.20
2022-12-17T04:44:05.657Z,-7.70
2022-12-17T04:47:05.673Z,-7.60
2022-12-17T04:49:50.973Z,-7.40
2022-12-17T04:52:36.578Z,-7.50
2022-12-17T04:55:23.386Z,-7.30
2022-12-17T04:58:10.146Z,-7.40
2022-12-17T05:00:55.953Z,-7.40
2022-12-17T05:03:41.768Z,-6.70
2022-12-17T05:06:29.061Z,-7.30
2022-12-17T05:09:11.894Z,-7.10
2022-12-17T05:11:57.259Z,-6.90
2022-12-17T05:14:44.173Z,-6.40
2022-12-17T05:17:30.837Z,-6.80
2022-12-17T05:20:16.325Z,-6.90
2022-12-17T05:23:01.704Z,-6.80
2022-12-17T05:25:47.366Z,-6.60
2022-12-17T05:28:33.038Z,-6.50
2022-12-17T05:31:19.979Z,-5.10
2022-12-17T05:34:05.260Z,-6.40
2022-12-17T05:36:50.708Z,-6.40
2022-12-17T05:39:36.444Z,-6.30
2022-12-17T05:42:21.777Z,-5.90
2022-12-17T05:45:07.405Z,-6.20
2022-12-17T05:47:54.838Z,-5.90
2022-12-17T05:50:40.332Z,-5.80
2022-12-17T05:53:25.645Z,-6.10
2022-12-17T05:56:12.457Z,-5.80
2022-12-17T05:58:57.970Z,-5.70
2022-12-17T06:01:43.906Z,-5.80
2022-12-17T06:04:31.014Z,-5.50
2022-12-17T06:07:17.303Z,-5.40
2022-12-17T06:10:03.122Z,-5.50
2022-12-17T06:12:48.630Z,-5.30
2022-12-17T06:15:34.837Z,-5.40
2022-12-17T06:18:29.026Z,-5.20
2022-12-17T06:21:27.487Z,-5.20
2022-12-17T06:24:13.186Z,-5.20
2022-12-17T06:26:58.685Z,-5.10
2022-12-17T06:29:44.789Z,-5.00
2022-12-17T06:32:30.126Z,-5.20
2022-12-17T06:35:15.607Z,-5.00
2022-12-17T06:38:02.933Z,-4.90
2022-12-17T06:40:48.124Z,-5.10
2022-12-17T06:43:34.090Z,-4.90
2022-12-17T06:46:19.808Z,-4.80
2022-12-17T06:49:06.452Z,-4.80
2022-12-17T06:51:52.050Z,-4.90
2022-12-17T06:54:39.009Z,-4.40
2022-12-17T06:58:02.559Z,-4.80
2022-12-17T07:00:47.905Z,-4.90
2022-12-17T07:03:36.312Z,-4.80
2022-12-17T07:06:23.828Z,-4.70
2022-12-17T07:09:09.986Z,-4.70
2022-12-17T07:11:57.416Z,-4.70
2022-12-17T07:14:43.327Z,-4.70
2022-12-17T07:17:29.332Z,-4.60
2022-12-17T07:20:15.011Z,-4.60
2022-12-17T07:23:00.669Z,-4.60
2022-12-17T07:25:46.540Z,-4.50
2022-12-17T07:28:33.344Z,-4.60
2022-12-17T07:31:18.958Z,-4.70
2022-12-17T07:34:04.444Z,-4.70
2022-12-17T07:36:50.714Z,-4.70
2022-12-17T07:39:36.809Z,-4.70
2022-12-17T07:42:22.375Z,-4.60
2022-12-17T07:45:08.982Z,-4.80
2022-12-17T07:48:09.519Z,-4.80
2022-12-17T07:50:54.934Z,-4.80
2022-12-17T07:53:41.580Z,-4.80
2022-12-17T07:56:28.985Z,-4.80
2022-12-17T07:59:15.837Z,-4.80
2022-12-17T08:02:03.857Z,-4.60
2022-12-17T08:04:49.451Z,-4.70
2022-12-17T08:07:34.959Z,-4.60
2022-12-17T08:10:20.578Z,-4.60
2022-12-17T08:13:14.456Z,-4.60
2022-12-17T08:16:00.362Z,-4.60
2022-12-17T08:18:47.514Z,-4.50
2022-12-17T08:21:33.178Z,-4.70
2022-12-17T08:24:22.660Z,-4.30
2022-12-17T08:27:08.663Z,-4.30
2022-12-17T08:29:54.386Z,-4.20
2022-12-17T08:32:40.661Z,-2.40
2022-12-17T08:35:29.101Z,-4.20
2022-12-17T08:38:20.600Z,-4.10
2022-12-17T08:41:08.044Z,-4.10
2022-12-17T08:43:53.908Z,-4.30
2022-12-17T08:46:40.917Z,-4.00
2022-12-17T08:49:26.344Z,-4.30
2022-12-17T08:52:13.000Z,-4.30
2022-12-17T08:54:58.378Z,-4.30
2022-12-17T08:57:44.674Z,-4.20
2022-12-17T09:00:32.152Z,-4.20
2022-12-17T09:03:19.946Z,-4.10
2022-12-17T09:06:05.903Z,-4.00
2022-12-17T09:08:52.922Z,-4.00
2022-12-17T09:11:38.716Z,-4.00
2022-12-17T09:14:26.381Z,-4.00
2022-12-17T09:17:11.910Z,-4.10
2022-12-17T09:19:57.744Z,-3.90
2022-12-17T09:22:43.089Z,-3.70
2022-12-17T09:25:31.554Z,-3.90
2022-12-17T09:28:19.792Z,-3.80
2022-12-17T09:31:05.420Z,-3.80
2022-12-17T09:33:51.480Z,-3.60
2022-12-17T09:36:40.425Z,-3.90
2022-12-17T09:39:26.288Z,-3.90
2022-12-17T09:42:21.232Z,-4.00
2022-12-17T09:45:10.040Z,-3.90
2022-12-17T09:48:04.270Z,-3.90
2022-12-17T09:50:50.317Z,-3.80
2022-12-17T09:53:41.065Z,-3.80
2022-12-17T09:56:30.676Z,-3.80
2022-12-17T09:59:18.262Z,-3.90
2022-12-17T10:02:04.589Z,-3.80
2022-12-17T10:04:53.595Z,-3.80
2022-12-17T10:07:42.562Z,-3.90
2022-12-17T10:10:36.979Z,-3.80
2022-12-17T10:13:29.391Z,-3.80
2022-12-17T10:16:18.567Z,-3.80
2022-12-17T10:19:05.497Z,-3.70
2022-12-17T10:21:52.456Z,-3.50
2022-12-17T10:24:37.784Z,-3.80
2022-12-17T10:27:29.354Z,-3.40
2022-12-17T10:30:14.778Z,-3.30
2022-12-17T10:33:02.253Z,-3.40
2022-12-17T10:35:51.302Z,-3.30
2022-12-17T10:38:41.165Z,-3.30
2022-12-17T10:41:42.214Z,-3.40
2022-12-17T10:44:42.091Z,-3.50
2022-12-17T10:47:31.555Z,-3.20
2022-12-17T10:50:24.930Z,-3.40
2022-12-17T10:53:10.921Z,-3.40
2022-12-17T10:56:07.759Z,-3.30
2022-12-17T10:58:53.945Z,-3.40
2022-12-17T11:01:41.855Z,-3.50
2022-12-17T11:04:43.641Z,-3.40
2022-12-17T11:07:35.531Z,-3.30
2022-12-17T11:10:25.143Z,-3.30
2022-12-17T11:13:14.904Z,-3.40
2022-12-17T11:16:05.852Z,-3.40
2022-12-17T11:19:01.861Z,-3.30
2022-12-17T11:21:52.596Z,-3.10
2022-12-17T11:24:44.534Z,-3.20
2022-12-17T11:27:37.541Z,-3.30
2022-12-17T11:30:31.060Z,-3.20
2022-12-17T11:33:31.007Z,-3.10
2022-12-17T11:36:32.514Z,-3.10
2022-12-17T11:39:33.551Z,-3.20
2022-12-17T11:42:28.588Z,-3.20
2022-12-17T11:45:21.234Z,-3.20
2022-12-17T11:48:15.106Z,-3.20
2022-12-17T11:51:06.320Z,-3.20
2022-12-17T11:54:13.612Z,-3.20
2022-12-17T11:57:04.379Z,-3.10
2022-12-17T11:59:58.166Z,-3.00
2022-12-17T12:03:03.847Z,-2.90
2022-12-17T12:05:59.751Z,-2.90
2022-12-17T12:08:47.862Z,-3.00
2022-12-17T12:11:44.465Z,-3.10
2022-12-17T12:14:41.643Z,-3.10
2022-12-17T12:17:42.063Z,-3.10
2022-12-17T12:20:41.388Z,-3.30
2022-12-17T12:23:36.680Z,-3.40
2022-12-17T12:26:31.592Z,-3.30
2022-12-17T12:29:25.377Z,-3.30
2022-12-17T12:32:19.131Z,-3.20
2022-12-17T12:35:08.397Z,-3.40
2022-12-17T12:38:08.581Z,-3.30
2022-12-17T12:40:58.873Z,-3.20
2022-12-17T12:43:48.656Z,-3.50
2022-12-17T12:46:39.084Z,-3.50
2022-12-17T12:49:37.156Z,-3.50
2022-12-17T12:52:24.469Z,-3.50
2022-12-17T12:55:11.485Z,-3.60
2022-12-17T12:58:16.063Z,-3.50
2022-12-17T13:01:12.257Z,-3.40
2022-12-17T13:04:08.098Z,-3.40
2022-12-17T13:06:45.681Z,-3.40
2022-12-17T13:09:35.038Z,-3.60
2022-12-17T13:12:29.955Z,-3.50
2022-12-17T13:15:14.602Z,-3.60
2022-12-17T13:17:59.116Z,-3.70
2022-12-17T13:20:30.872Z,-3.70
2022-12-17T13:23:27.922Z,-3.80
2022-12-17T13:26:21.229Z,-3.80
2022-12-17T13:28:50.463Z,-3.90
2022-12-17T13:31:21.697Z,-3.80
2022-12-17T13:33:59.347Z,-3.80
2022-12-17T13:36:34.205Z,-3.70
2022-12-17T13:39:09.078Z,-3.70
2022-12-17T13:41:38.657Z,-3.80
2022-12-17T13:44:21.388Z,-3.80
2022-12-17T13:46:51.083Z,-3.90
2022-12-17T13:49:21.458Z,-4.00
2022-12-17T13:52:00.877Z,-3.90
2022-12-17T13:54:29.110Z,-4.00
2022-12-17T13:57:08.459Z,-4.00
2022-12-17T13:59:39.287Z,-3.70
2022-12-17T14:02:07.842Z,-3.80
2022-12-17T14:04:35.771Z,-3.80
2022-12-17T14:07:09.978Z,-3.80
2022-12-17T14:09:41.389Z,-3.90
2022-12-17T14:12:23.809Z,-4.00
2022-12-17T14:14:56.956Z,-4.00
2022-12-17T14:17:26.772Z,-3.90
2022-12-17T14:20:00.151Z,-3.90
2022-12-17T14:22:36.113Z,-4.00
2022-12-17T14:25:07.990Z,-4.10
2022-12-17T14:27:37.914Z,-4.10
2022-12-17T14:30:23.668Z,-4.00
2022-12-17T14:32:51.569Z,-4.00
2022-12-17T14:35:29.120Z,-4.00
2022-12-17T14:37:57.510Z,-4.20
2022-12-17T14:40:27.147Z,-4.10
2022-12-17T14:43:01.008Z,-4.10
2022-12-17T14:45:31.898Z,-4.10
2022-12-17T14:48:04.265Z,-4.00
2022-12-17T14:50:35.765Z,-4.00
2022-12-17T14:53:25.489Z,-4.30
2022-12-17T14:55:55.938Z,-4.10
2022-12-17T14:58:26.268Z,-4.00
2022-12-17T15:00:57.132Z,-4.10
2022-12-17T15:03:28.280Z,-4.20
2022-12-17T15:06:00.339Z,-4.10
2022-12-17T15:08:36.917Z,-4.20
2022-12-17T15:11:05.473Z,-4.20
2022-12-17T15:13:36.575Z,-4.00
2022-12-17T15:16:05.378Z,-4.20
2022-12-17T15:18:33.515Z,-4.20
2022-12-17T15:21:02.614Z,-4.20
2022-12-17T15:23:32.907Z,-4.20
2022-12-17T15:26:01.902Z,-4.10
2022-12-17T15:28:30.375Z,-4.20
2022-12-17T15:31:00.054Z,-4.30
2022-12-17T15:33:28.238Z,-4.30
2022-12-17T15:35:59.605Z,-4.40
2022-12-17T15:38:27.986Z,-4.40
2022-12-17T15:40:56.894Z,-4.50
2022-12-17T15:43:24.061Z,-4.40
2022-12-17T15:45:53.413Z,-4.50
2022-12-17T15:48:24.213Z,-4.60
2022-12-17T15:50:52.467Z,-4.60
2022-12-17T15:53:20.754Z,-5.00
2022-12-17T15:55:50.039Z,-4.60
2022-12-17T15:58:19.079Z,-4.60
2022-12-17T16:00:47.472Z,-4.30
2022-12-17T16:03:15.563Z,-4.10
2022-12-17T16:05:45.188Z,-4.60
2022-12-17T16:08:13.220Z,-4.60
2022-12-17T16:10:42.470Z,-3.90
2022-12-17T16:13:12.122Z,-4.60
2022-12-17T16:15:40.610Z,-4.30
2022-12-17T16:18:11.446Z,-4.60
2022-12-17T16:20:39.553Z,-4.80
2022-12-17T16:23:09.749Z,-4.60
2022-12-17T16:25:37.770Z,-4.60
2022-12-17T16:28:09.373Z,-4.80
2022-12-17T16:30:38.125Z,-4.60
2022-12-17T16:33:06.695Z,-5.10
2022-12-17T16:35:35.006Z,-4.50
2022-12-17T16:38:03.899Z,-4.80
2022-12-17T16:40:33.449Z,-4.70
2022-12-17T16:43:01.888Z,-4.70
2022-12-17T16:45:30.220Z,-4.70
2022-12-17T16:50:29.736Z,-4.60
2022-12-17T16:52:58.701Z,-4.40
2022-12-17T16:55:26.848Z,-4.60
2022-12-17T16:57:56.574Z,-5.10
2022-12-17T17:00:25.172Z,-4.50
2022-12-17T17:02:54.642Z,-4.80
2022-12-17T17:05:22.733Z,-4.80
2022-12-17T17:07:54.021Z,-4.80
2022-12-17T17:10:22.682Z,-4.80
2022-12-17T17:12:53.359Z,-5.00
2022-12-17T17:15:23.543Z,-4.70
2022-12-17T17:17:55.770Z,-4.70
2022-12-17T17:20:25.563Z,-4.80
2022-12-17T17:22:56.048Z,-4.40
2022-12-17T17:25:38.566Z,-4.60
2022-12-17T17:28:13.842Z,-4.50
2022-12-17T17:30:43.663Z,-4.70
2022-12-17T17:33:11.657Z,-4.20
2022-12-17T17:35:39.668Z,-4.50
2022-12-17T17:38:08.094Z,-4.50
2022-12-17T17:40:36.550Z,-4.20
2022-12-17T17:43:05.036Z,-4.80
2022-12-17T17:45:36.212Z,-3.80
2022-12-17T17:48:06.129Z,-4.50
2022-12-17T17:50:34.083Z,-4.90
2022-12-17T17:55:30.880Z,-4.50
2022-12-17T17:57:59.291Z,-4.50
2022-12-17T18:00:28.054Z,-4.50
2022-12-17T18:02:56.553Z,-4.90
2022-12-17T18:05:26.233Z,-4.60
2022-12-17T18:07:54.388Z,-4.80
2022-12-17T18:13:08.201Z,-5.10
2022-12-17T18:15:36.798Z,-4.90
2022-12-17T18:18:07.383Z,-4.90
2022-12-17T18:20:41.039Z,-4.60
2022-12-17T18:23:09.232Z,-5.10
2022-12-17T18:25:38.055Z,-4.70
2022-12-17T18:28:06.398Z,-4.70
2022-12-17T18:30:34.919Z,-4.80
2022-12-17T18:33:03.572Z,-4.80
2022-12-17T18:35:31.895Z,-5.00
2022-12-17T18:38:01.623Z,-5.00
2022-12-17T18:40:33.322Z,-4.90
2022-12-17T18:43:18.976Z,-4.70
2022-12-17T18:45:47.565Z,-5.00
2022-12-17T18:48:15.680Z,-4.90
2022-12-17T18:50:43.910Z,-4.90
2022-12-17T18:53:13.704Z,-5.10
2022-12-17T18:55:42.116Z,-5.10
2022-12-17T18:58:12.115Z,-5.20
2022-12-17T19:00:40.573Z,-4.90
2022-12-17T19:05:45.251Z,-4.80
2022-12-17T19:08:16.129Z,-4.90
2022-12-17T19:10:44.396Z,-4.40
2022-12-17T19:13:12.911Z,-4.70
2022-12-17T19:15:40.955Z,-3.90
2022-12-17T19:18:10.703Z,-5.20
2022-12-17T19:20:38.863Z,-5.40
2022-12-17T19:23:07.128Z,-5.20
2022-12-17T19:25:37.048Z,-5.30
2022-12-17T19:28:05.886Z,-5.30
2022-12-17T19:30:34.243Z,-5.10
2022-12-17T19:33:02.471Z,-5.30
2022-12-17T19:35:30.875Z,-5.40
2022-12-17T19:37:59.080Z,-5.40
2022-12-17T19:40:27.230Z,-5.30
2022-12-17T19:42:58.168Z,-4.80
2022-12-17T19:45:26.174Z,-5.30
2022-12-17T19:47:54.765Z,-6.20
2022-12-17T19:50:22.917Z,-5.50
2022-12-17T19:55:22.132Z,-5.50
2022-12-17T20:00:21.173Z,-5.70
2022-12-17T20:02:49.472Z,-5.30
2022-12-17T20:05:18.528Z,-5.40
2022-12-17T20:07:48.074Z,-5.60
2022-12-17T20:10:18.747Z,-5.40
2022-12-17T20:12:47.194Z,-5.70
2022-12-17T20:15:15.555Z,-5.10
2022-12-17T20:17:44.860Z,-4.90
2022-12-17T20:20:13.343Z,-5.80
2022-12-17T20:22:43.573Z,-5.60
2022-12-17T20:25:12.506Z,-5.30
2022-12-17T20:27:42.321Z,-5.40
2022-12-17T20:30:11.675Z,-5.20
2022-12-17T20:32:39.822Z,-5.30
2022-12-17T20:35:10.040Z,-5.40
2022-12-17T20:37:37.950Z,-5.40
2022-12-17T20:40:08.938Z,-5.30
2022-12-17T20:42:38.508Z,-5.60
2022-12-17T20:45:08.902Z,-5.50
2022-12-17T20:47:37.177Z,-5.40
2022-12-17T20:50:06.013Z,-5.60
2022-12-17T20:52:37.972Z,-5.20
2022-12-17T20:55:07.497Z,-5.60
2022-12-17T20:57:35.616Z,-5.80
2022-12-17T21:00:03.923Z,-5.70
2022-12-17T21:02:32.405Z,-5.20
2022-12-17T21:05:02.195Z,-5.50
2022-12-17T21:07:30.508Z,-5.10
2022-12-17T21:10:00.553Z,-5.90
2022-12-17T21:12:50.660Z,-5.50
2022-12-17T21:15:18.802Z,-5.50
2022-12-17T21:17:48.429Z,-5.70
2022-12-17T21:20:16.920Z,-5.60
2022-12-17T21:22:45.281Z,-5.60
2022-12-17T21:25:14.799Z,-5.70
2022-12-17T21:27:44.486Z,-5.40
2022-12-17T21:30:20.807Z,-5.40
2022-12-17T21:32:48.854Z,-5.80
2022-12-17T21:35:19.956Z,-5.90
2022-12-17T21:37:49.528Z,-5.60
2022-12-17T21:40:19.817Z,-5.50
2022-12-17T21:43:14.558Z,-5.80
2022-12-17T21:45:43.924Z,-5.40
2022-12-17T21:48:15.009Z,-5.60
2022-12-17T21:50:44.262Z,-5.60
2022-12-17T21:53:14.021Z,-5.40
2022-12-17T21:55:43.672Z,-5.30
2022-12-17T21:58:12.876Z,-6.00
2022-12-17T22:00:41.201Z,-5.90
2022-12-17T22:03:09.731Z,-6.10
2022-12-17T22:05:39.188Z,-6.00
2022-12-17T22:10:47.554Z,-5.80
2022-12-17T22:13:38.288Z,-5.70
2022-12-17T22:16:07.926Z,-5.50
2022-12-17T22:18:36.938Z,-5.30
2022-12-17T22:21:05.496Z,-4.60
2022-12-17T22:23:36.779Z,-5.00
2022-12-17T22:26:11.416Z,-5.20
2022-12-17T22:28:41.684Z,-5.30
2022-12-17T22:31:30.416Z,-5.50
2022-12-17T22:34:34.915Z,-5.30
2022-12-17T22:39:25.505Z,-5.80
2022-12-17T22:44:09.373Z,-5.80
2022-12-17T22:44:42.776Z,-5.80
2022-12-17T22:45:34.863Z,-5.40
2022-12-17T22:48:03.079Z,-5.50
2022-12-17T22:50:35.039Z,-5.60
2022-12-17T22:53:11.288Z,-5.70
2022-12-17T22:55:39.639Z,-5.40
2022-12-17T22:58:08.474Z,-5.30
2022-12-17T23:00:39.818Z,-5.50
2022-12-17T23:03:09.959Z,-5.70
2022-12-17T23:05:38.689Z,-4.80
2022-12-17T23:08:07.374Z,-4.70
2022-12-17T23:13:04.168Z,-5.40
2022-12-17T23:15:36.805Z,-5.90
2022-12-17T23:18:07.324Z,-5.60
2022-12-17T23:20:37.271Z,-5.80
2022-12-17T23:23:05.845Z,-5.80
2022-12-17T23:25:34.032Z,-5.20
2022-12-17T23:28:02.167Z,-5.50
2022-12-17T23:30:30.062Z,-5.80
2022-12-17T23:32:58.089Z,-5.50
2022-12-17T23:35:27.674Z,-4.60
2022-12-17T23:37:56.296Z,-5.60
2022-12-17T23:40:25.814Z,-5.70
2022-12-17T23:42:53.758Z,-5.80
2022-12-17T23:45:21.908Z,-6.50
2022-12-17T23:50:18.620Z,-4.60
2022-12-17T23:52:47.924Z,-5.80
2022-12-17T23:57:44.802Z,-7.10
